WetterOnline ( https://www.wetteronline.de )

Wetter aktuell Potsdam

Aktuelles Wetter: Potsdam (100m)

6-stündlich | Neueste Meldungen
Ortszeit Temperatur Wetter
Mo, 15.04. 14:00 12.1° C bewölkt
Mo, 15.04. 8:00 8.7° C wolkig
Mo, 15.04. 2:00 9.2° C bewölkt
So, 14.04. 20:00 12.9° C bedeckt
So, 14.04. 14:00 15.8° C wolkig
So, 14.04. 8:00 15.3° C bewölkt
So, 14.04. 2:00 16.5° C bedeckt
Sa, 13.04. 20:00 18.4° C bewölkt
Ortszeit Temperatur Wetter
Mo, 15.04. 14:00 12.1° C bewölkt
Mo, 15.04. 13:50 12.1° C bewölkt
Mo, 15.04. 13:40 12.6° C bewölkt
Mo, 15.04. 13:30 11.8° C bewölkt
Mo, 15.04. 13:20 11.8° C bewölkt
Mo, 15.04. 13:10 11.6° C leichter Regen
Mo, 15.04. 13:00 11.6° C bedeckt
Mo, 15.04. 12:30 12.6° C bewölkt
Mo, 15.04. 12:00 12.9° C bewölkt
Mo, 15.04. 11:30 12.3° C bewölkt
Mo, 15.04. 11:00 11.3° C bewölkt
Ortszeit Relative Feuchte Sichtweite
Mo, 15.04. 14:00 64% 50 km
Mo, 15.04. 8:00 76% 50 km
Mo, 15.04. 2:00 66% 65 km
So, 14.04. 20:00 44% 60 km
So, 14.04. 14:00 41% 40 km
So, 14.04. 8:00 70% 55 km
So, 14.04. 2:00 66% 50 km
Sa, 13.04. 20:00 64% 60 km
Ortszeit Relative Feuchte Sichtweite
Mo, 15.04. 14:00 64% 50 km
Mo, 15.04. 13:50 64% -
Mo, 15.04. 13:40 62% -
Mo, 15.04. 13:30 63% >70 km
Mo, 15.04. 13:20 63% -
Mo, 15.04. 13:10 64% -
Mo, 15.04. 13:00 63% 50 km
Mo, 15.04. 12:30 56% 55 km
Mo, 15.04. 12:00 54% 50 km
Mo, 15.04. 11:30 60% >70 km
Mo, 15.04. 11:00 62% 45 km
Ortszeit Niederschlagsmenge Niederschlagsart
Mo, 15.04. 14:00 0.1 l/m2 in 6 Std. Regen
Mo, 15.04. 8:00 0.1 l/m2 in 12 Std. Regen
Mo, 15.04. 2:00 0.0 l/m2 in 6 Std. -
So, 14.04. 20:00 0.0 l/m2 in 12 Std. -
So, 14.04. 14:00 0.0 l/m2 in 6 Std. -
So, 14.04. 8:00 0.0 l/m2 in 12 Std. -
So, 14.04. 2:00 0.0 l/m2 in 6 Std. -
Sa, 13.04. 20:00 0.1 l/m2 in 12 Std. -
Ortszeit Niederschlagsmenge Niederschlagsart
Mo, 15.04. 14:00 <0.05 l/m2 in 1 Std. Regen
Mo, 15.04. 13:50 keine Meldung -
Mo, 15.04. 13:40 keine Meldung -
Mo, 15.04. 13:30 <0.05 l/m2 in 30 Min Schneeregen
Mo, 15.04. 13:20 keine Meldung -
Mo, 15.04. 13:10 keine Meldung -
Mo, 15.04. 13:00 0.0 l/m2 in 1 Std. -
Mo, 15.04. 12:30 0.0 l/m2 in 30 Min -
Mo, 15.04. 12:00 0.0 l/m2 in 1 Std. -
Mo, 15.04. 11:30 0.0 l/m2 in 30 Min -
Mo, 15.04. 11:00 0.0 l/m2 in 1 Std. -
Ortszeit Stärke Spitze Richtung
km/h Bft. km/h Grad Sektor
Mo, 15.04. 14:00 14 3 36 180° S
Mo, 15.04. 8:00 9 2 17 260° W
Mo, 15.04. 2:00 9 2 28 250° W
So, 14.04. 20:00 14 3 47 290° W
So, 14.04. 14:00 30 5 57 280° W
So, 14.04. 8:00 22 4 50 280° W
So, 14.04. 2:00 24 4 39 230° SW
Sa, 13.04. 20:00 13 3 46 230° SW
Ortszeit Stärke Spitze Richtung
km/h Bft. km/h Grad Sektor
Mo, 15.04. 14:00 14 3 36 180° S
Mo, 15.04. 13:50 14 3 - 180° S
Mo, 15.04. 13:40 19 3 - 180° S
Mo, 15.04. 13:30 18 3 36 190° S
Mo, 15.04. 13:20 18 3 - 190° S
Mo, 15.04. 13:10 18 3 - 200° S
Mo, 15.04. 13:00 20 4 33 200° S
Mo, 15.04. 12:30 17 3 28 200° S
Mo, 15.04. 12:00 14 3 22 210° SW
Mo, 15.04. 11:30 7 2 18 230° SW
Mo, 15.04. 11:00 11 2 22 240° SW
Ortszeit Untergrenze Bedeckung Gattung
total tief tief mittel hoch
Mo, 15.04. 14:00 750 m 8/8 7/8 - - -
Mo, 15.04. 8:00 450 m 8/8 3/8 - - -
Mo, 15.04. 2:00 2100 m 7/8 7/8 - - -
So, 14.04. 20:00 6600 m 8/8 8/8 - - -
So, 14.04. 14:00 1800 m 8/8 2/8 - - -
So, 14.04. 8:00 1500 m 8/8 4/8 - - -
So, 14.04. 2:00 6900 m 8/8 8/8 - - -
Sa, 13.04. 20:00 6900 m 8/8 4/8 - - -
Ortszeit Bedeckungsgrad in Achtel und Wolkenuntergrenze
Mo, 15.04. 14:00 3(750m) 7(1380m) 8(5700m)
Mo, 15.04. 13:50 3(750m) 7(1380m) 8(5700m)
Mo, 15.04. 13:40 7
Mo, 15.04. 13:30 7(1080m) 7(1500m) 7(6000m)
Mo, 15.04. 13:20 7(1080m) 7(1500m) 7(6000m)
Mo, 15.04. 13:10 7
Mo, 15.04. 13:00 4(930m) 7(1230m) 8(1500m)
Mo, 15.04. 12:30 2(1200m) 7(1800m) 7(2400m)
Mo, 15.04. 12:00 4(930m) 7(2100m) 7(6600m)
Mo, 15.04. 11:30 3(840m) 7(1230m) 7(2100m)
Mo, 15.04. 11:00 2(840m) 3(1020m) 7(2400m)
Ortszeit Luftdruck NN (hPa) Tendenz (hPa in 3 Std.)
Mo, 15.04. 14:00 1007 - 3,0
Mo, 15.04. 8:00 1012 - 1,5
Mo, 15.04. 2:00 1015 - 1,4
So, 14.04. 20:00 1018 - 0,3
So, 14.04. 14:00 1019 + 0,9
So, 14.04. 8:00 1016 + 1,7
So, 14.04. 2:00 1016 - 1,9
Sa, 13.04. 20:00 1019 - 2,2
Ortszeit Luftdruck NN (hPa) Tendenz (hPa in 3 Std.)
Mo, 15.04. 14:00 1007 - 3,0
Mo, 15.04. 13:50 1007 keine Meldung
Mo, 15.04. 13:40 1007 keine Meldung
Mo, 15.04. 13:30 1008 - 2,7
Mo, 15.04. 13:20 1008 keine Meldung
Mo, 15.04. 13:10 1008 keine Meldung
Mo, 15.04. 13:00 1008 - 2,5
Mo, 15.04. 12:30 1008 - 2,6
Mo, 15.04. 12:00 1009 - 2,5
Mo, 15.04. 11:30 1010 - 2,1
Mo, 15.04. 11:00 1010 - 1,8
Ortszeit Schneehöhe (cm)
Mo, 15.04. 14:00 0
Mo, 15.04. 8:00 0
Mo, 15.04. 2:00 0
So, 14.04. 20:00 0
So, 14.04. 14:00 0
So, 14.04. 8:00 0
So, 14.04. 2:00 0
Sa, 13.04. 20:00 0
Ortszeit Schneehöhe (cm)
Mo, 15.04. 14:00 0
Mo, 15.04. 13:50 0
Mo, 15.04. 13:40 -
Mo, 15.04. 13:30 0
Mo, 15.04. 13:20 0
Mo, 15.04. 13:10 -
Mo, 15.04. 13:00 0
Mo, 15.04. 12:30 0
Mo, 15.04. 12:00 0
Mo, 15.04. 11:30 0
Mo, 15.04. 11:00 0
Link zu dieser Seite / Seite empfehlen

Das Wetter in ...